sensor_id;sensor_type;location;lat;lon;timestamp;P1;durP1;ratioP1;P2;durP2;ratioP2
37151;SDS011;23046;50.112;8.952;2023-03-03T00:00:00;10.77;;;6.87;;
37151;SDS011;23046;50.112;8.952;2023-03-03T00:00:22;10.80;;;6.95;;
37151;SDS011;23046;50.112;8.952;2023-03-03T00:00:32;12.05;;;7.05;;
37151;SDS011;23046;50.112;8.952;2023-03-03T00:00:42;12.93;;;7.07;;
37151;SDS011;23046;50.112;8.952;2023-03-03T00:00:53;13.70;;;7.20;;
37151;SDS011;23046;50.112;8.952;2023-03-03T00:01:04;12.38;;;7.10;;
37151;SDS011;23046;50.112;8.952;2023-03-03T00:01:14;12.13;;;7.18;;
37151;SDS011;23046;50.112;8.952;2023-03-03T00:01:25;11.50;;;7.00;;
37151;SDS011;23046;50.112;8.952;2023-03-03T00:01:35;11.77;;;7.37;;
37151;SDS011;23046;50.112;8.952;2023-03-03T00:01:45;11.77;;;7.30;;
37151;SDS011;23046;50.112;8.952;2023-03-03T00:01:55;12.35;;;7.45;;
37151;SDS011;23046;50.112;8.952;2023-03-03T00:02:05;12.33;;;7.27;;
37151;SDS011;23046;50.112;8.952;2023-03-03T00:02:16;13.23;;;7.20;;
37151;SDS011;23046;50.112;8.952;2023-03-03T00:02:26;13.00;;;7.23;;
37151;SDS011;23046;50.112;8.952;2023-03-03T00:02:36;13.17;;;7.30;;
37151;SDS011;23046;50.112;8.952;2023-03-03T00:02:46;11.52;;;7.05;;
37151;SDS011;23046;50.112;8.952;2023-03-03T00:02:57;11.37;;;7.20;;
37151;SDS011;23046;50.112;8.952;2023-03-03T00:03:11;11.15;;;7.18;;
37151;SDS011;23046;50.112;8.952;2023-03-03T00:03:24;11.65;;;7.18;;
37151;SDS011;23046;50.112;8.952;2023-03-03T00:03:35;11.48;;;7.15;;
37151;SDS011;23046;50.112;8.952;2023-03-03T00:03:46;10.80;;;7.00;;
37151;SDS011;23046;50.112;8.952;2023-03-03T00:03:56;11.07;;;6.90;;
37151;SDS011;23046;50.112;8.952;2023-03-03T00:04:06;11.67;;;7.00;;
37151;SDS011;23046;50.112;8.952;2023-03-03T00:04:16;12.90;;;7.40;;
37151;SDS011;23046;50.112;8.952;2023-03-03T00:04:26;12.88;;;7.60;;
37151;SDS011;23046;50.112;8.952;2023-03-03T00:04:37;12.43;;;7.33;;
37151;SDS011;23046;50.112;8.952;2023-03-03T00:04:47;11.43;;;7.17;;
37151;SDS011;23046;50.112;8.952;2023-03-03T00:04:57;11.07;;;7.07;;
37151;SDS011;23046;50.112;8.952;2023-03-03T00:05:07;10.77;;;7.03;;
37151;SDS011;23046;50.112;8.952;2023-03-03T00:05:18;11.43;;;7.43;;
37151;SDS011;23046;50.112;8.952;2023-03-03T00:05:29;11.90;;;7.40;;
37151;SDS011;23046;50.112;8.952;2023-03-03T00:05:40;12.63;;;7.72;;
37151;SDS011;23046;50.112;8.952;2023-03-03T00:05:51;12.43;;;7.57;;
37151;SDS011;23046;50.112;8.952;2023-03-03T00:06:02;11.45;;;7.43;;
37151;SDS011;23046;50.112;8.952;2023-03-03T00:06:13;11.43;;;7.20;;
37151;SDS011;23046;50.112;8.952;2023-03-03T00:06:23;12.13;;;7.33;;
37151;SDS011;23046;50.112;8.952;2023-03-03T00:06:34;12.95;;;7.07;;
37151;SDS011;23046;50.112;8.952;2023-03-03T00:06:44;12.97;;;7.00;;
37151;SDS011;23046;50.112;8.952;2023-03-03T00:06:54;11.77;;;6.93;;
37151;SDS011;23046;50.112;8.952;2023-03-03T00:07:04;10.82;;;7.40;;
37151;SDS011;23046;50.112;8.952;2023-03-03T00:07:15;11.37;;;7.40;;
37151;SDS011;23046;50.112;8.952;2023-03-03T00:07:31;12.48;;;7.15;;
37151;SDS011;23046;50.112;8.952;2023-03-03T00:07:42;12.23;;;7.03;;
37151;SDS011;23046;50.112;8.952;2023-03-03T00:07:52;12.57;;;6.90;;
37151;SDS011;23046;50.112;8.952;2023-03-03T00:08:03;11.90;;;6.80;;
37151;SDS011;23046;50.112;8.952;2023-03-03T00:08:13;11.60;;;6.77;;
37151;SDS011;23046;50.112;8.952;2023-03-03T00:08:24;11.33;;;6.83;;
37151;SDS011;23046;50.112;8.952;2023-03-03T00:08:34;11.88;;;7.00;;
37151;SDS011;23046;50.112;8.952;2023-03-03T00:08:44;11.60;;;7.07;;
37151;SDS011;23046;50.112;8.952;2023-03-03T00:08:55;11.50;;;7.10;;
37151;SDS011;23046;50.112;8.952;2023-03-03T00:09:05;11.47;;;6.90;;
37151;SDS011;23046;50.112;8.952;2023-03-03T00:09:15;11.33;;;6.83;;
37151;SDS011;23046;50.112;8.952;2023-03-03T00:09:25;10.38;;;6.80;;
37151;SDS011;23046;50.112;8.952;2023-03-03T00:09:36;12.77;;;7.30;;
37151;SDS011;23046;50.112;8.952;2023-03-03T00:09:46;13.07;;;7.10;;
37151;SDS011;23046;50.112;8.952;2023-03-03T00:09:56;14.17;;;7.40;;
37151;SDS011;23046;50.112;8.952;2023-03-03T00:10:06;12.07;;;7.20;;
37151;SDS011;23046;50.112;8.952;2023-03-03T00:10:17;11.98;;;7.32;;
37151;SDS011;23046;50.112;8.952;2023-03-03T00:10:27;11.43;;;7.17;;
37151;SDS011;23046;50.112;8.952;2023-03-03T00:10:38;11.90;;;7.20;;
37151;SDS011;23046;50.112;8.952;2023-03-03T00:10:48;12.00;;;7.30;;
37151;SDS011;23046;50.112;8.952;2023-03-03T00:10:59;11.85;;;7.35;;
37151;SDS011;23046;50.112;8.952;2023-03-03T00:11:10;11.87;;;7.33;;
37151;SDS011;23046;50.112;8.952;2023-03-03T00:11:20;14.35;;;7.38;;
37151;SDS011;23046;50.112;8.952;2023-03-03T00:11:30;14.40;;;7.00;;
37151;SDS011;23046;50.112;8.952;2023-03-03T00:11:40;15.00;;;7.03;;
37151;SDS011;23046;50.112;8.952;2023-03-03T00:11:53;11.90;;;7.20;;
37151;SDS011;23046;50.112;8.952;2023-03-03T00:12:16;12.25;;;7.35;;
37151;SDS011;23046;50.112;8.952;2023-03-03T00:12:28;14.98;;;7.50;;
37151;SDS011;23046;50.112;8.952;2023-03-03T00:12:44;15.95;;;7.40;;
37151;SDS011;23046;50.112;8.952;2023-03-03T00:12:55;13.75;;;7.40;;
37151;SDS011;23046;50.112;8.952;2023-03-03T00:13:11;12.53;;;7.20;;
37151;SDS011;23046;50.112;8.952;2023-03-03T00:13:22;11.40;;;7.15;;
37151;SDS011;23046;50.112;8.952;2023-03-03T00:14:27;11.98;;;6.90;;
37151;SDS011;23046;50.112;8.952;2023-03-03T00:14:38;12.27;;;7.30;;
37151;SDS011;23046;50.112;8.952;2023-03-03T00:14:49;12.80;;;7.65;;
37151;SDS011;23046;50.112;8.952;2023-03-03T00:14:59;12.73;;;7.77;;
37151;SDS011;23046;50.112;8.952;2023-03-03T00:15:13;11.90;;;7.50;;
37151;SDS011;23046;50.112;8.952;2023-03-03T00:15:24;13.27;;;7.50;;
37151;SDS011;23046;50.112;8.952;2023-03-03T00:15:34;13.60;;;7.63;;
37151;SDS011;23046;50.112;8.952;2023-03-03T00:15:45;14.43;;;7.60;;
37151;SDS011;23046;50.112;8.952;2023-03-03T00:16:04;12.00;;;7.18;;
37151;SDS011;23046;50.112;8.952;2023-03-03T00:16:34;9.93;;;6.97;;
37151;SDS011;23046;50.112;8.952;2023-03-03T00:16:46;9.68;;;6.70;;
37151;SDS011;23046;50.112;8.952;2023-03-03T00:16:59;11.32;;;6.80;;
37151;SDS011;23046;50.112;8.952;2023-03-03T00:17:14;13.40;;;6.90;;
37151;SDS011;23046;50.112;8.952;2023-03-03T00:17:28;15.07;;;7.07;;
37151;SDS011;23046;50.112;8.952;2023-03-03T00:17:39;15.15;;;7.35;;
37151;SDS011;23046;50.112;8.952;2023-03-03T00:17:49;13.30;;;7.67;;
37151;SDS011;23046;50.112;8.952;2023-03-03T00:18:00;13.20;;;7.53;;
37151;SDS011;23046;50.112;8.952;2023-03-03T00:18:40;13.32;;;7.35;;
37151;SDS011;23046;50.112;8.952;2023-03-03T00:18:51;12.70;;;7.38;;
37151;SDS011;23046;50.112;8.952;2023-03-03T00:19:01;12.13;;;7.18;;
37151;SDS011;23046;50.112;8.952;2023-03-03T00:19:13;12.20;;;6.80;;
37151;SDS011;23046;50.112;8.952;2023-03-03T00:19:23;11.82;;;6.90;;
37151;SDS011;23046;50.112;8.952;2023-03-03T00:19:37;11.00;;;6.88;;
37151;SDS011;23046;50.112;8.952;2023-03-03T00:19:47;11.50;;;7.32;;
37151;SDS011;23046;50.112;8.952;2023-03-03T00:19:58;13.32;;;7.47;;
37151;SDS011;23046;50.112;8.952;2023-03-03T00:20:38;14.70;;;7.57;;
37151;SDS011;23046;50.112;8.952;2023-03-03T00:20:55;13.77;;;7.43;;
37151;SDS011;23046;50.112;8.952;2023-03-03T00:21:13;11.38;;;7.40;;
37151;SDS011;23046;50.112;8.952;2023-03-03T00:21:25;14.10;;;7.68;;
37151;SDS011;23046;50.112;8.952;2023-03-03T00:21:44;13.90;;;7.15;;
37151;SDS011;23046;50.112;8.952;2023-03-03T00:21:55;13.52;;;7.20;;
37151;SDS011;23046;50.112;8.952;2023-03-03T00:22:06;13.00;;;7.30;;
37151;SDS011;23046;50.112;8.952;2023-03-03T00:22:27;16.08;;;7.35;;
37151;SDS011;23046;50.112;8.952;2023-03-03T00:22:39;18.02;;;7.95;;
37151;SDS011;23046;50.112;8.952;2023-03-03T00:22:49;16.00;;;7.95;;
37151;SDS011;23046;50.112;8.952;2023-03-03T00:23:34;13.80;;;7.60;;
37151;SDS011;23046;50.112;8.952;2023-03-03T00:23:44;13.98;;;7.60;;
37151;SDS011;23046;50.112;8.952;2023-03-03T00:23:45;14.90;;;7.70;;
37151;SDS011;23046;50.112;8.952;2023-03-03T00:23:58;13.52;;;7.72;;
37151;SDS011;23046;50.112;8.952;2023-03-03T00:24:22;13.73;;;7.70;;
37151;SDS011;23046;50.112;8.952;2023-03-03T00:24:38;11.75;;;7.50;;
37151;SDS011;23046;50.112;8.952;2023-03-03T00:24:48;13.07;;;7.53;;
37151;SDS011;23046;50.112;8.952;2023-03-03T00:25:28;13.65;;;7.47;;
37151;SDS011;23046;50.112;8.952;2023-03-03T00:25:39;13.38;;;7.50;;
37151;SDS011;23046;50.112;8.952;2023-03-03T00:25:52;16.25;;;7.80;;
37151;SDS011;23046;50.112;8.952;2023-03-03T00:26:06;16.20;;;8.07;;
37151;SDS011;23046;50.112;8.952;2023-03-03T00:26:31;12.15;;;7.68;;
37151;SDS011;23046;50.112;8.952;2023-03-03T00:26:50;14.48;;;7.70;;
37151;SDS011;23046;50.112;8.952;2023-03-03T00:27:06;15.60;;;7.65;;
37151;SDS011;23046;50.112;8.952;2023-03-03T00:27:26;14.73;;;7.25;;
37151;SDS011;23046;50.112;8.952;2023-03-03T00:27:38;14.70;;;7.28;;
37151;SDS011;23046;50.112;8.952;2023-03-03T00:27:49;15.80;;;7.45;;
37151;SDS011;23046;50.112;8.952;2023-03-03T00:28:00;15.07;;;7.27;;
37151;SDS011;23046;50.112;8.952;2023-03-03T00:28:19;13.55;;;6.95;;
37151;SDS011;23046;50.112;8.952;2023-03-03T00:28:37;13.75;;;7.32;;
37151;SDS011;23046;50.112;8.952;2023-03-03T00:28:50;15.57;;;7.40;;
37151;SDS011;23046;50.112;8.952;2023-03-03T00:29:07;15.15;;;7.40;;
37151;SDS011;23046;50.112;8.952;2023-03-03T00:29:35;13.23;;;7.30;;
37151;SDS011;23046;50.112;8.952;2023-03-03T00:29:47;14.80;;;7.35;;
37151;SDS011;23046;50.112;8.952;2023-03-03T00:29:59;13.80;;;7.50;;
37151;SDS011;23046;50.112;8.952;2023-03-03T00:30:22;13.67;;;7.63;;
37151;SDS011;23046;50.112;8.952;2023-03-03T00:30:34;13.38;;;7.55;;
37151;SDS011;23046;50.112;8.952;2023-03-03T00:30:44;13.10;;;7.60;;
37151;SDS011;23046;50.112;8.952;2023-03-03T00:30:58;13.00;;;7.60;;
37151;SDS011;23046;50.112;8.952;2023-03-03T00:31:14;13.05;;;7.80;;
37151;SDS011;23046;50.112;8.952;2023-03-03T00:31:27;14.02;;;7.97;;
37151;SDS011;23046;50.112;8.952;2023-03-03T00:31:38;12.85;;;7.55;;
37151;SDS011;23046;50.112;8.952;2023-03-03T00:31:48;11.37;;;7.50;;
37151;SDS011;23046;50.112;8.952;2023-03-03T00:32:30;11.75;;;7.43;;
37151;SDS011;23046;50.112;8.952;2023-03-03T00:32:45;11.95;;;7.72;;
37151;SDS011;23046;50.112;8.952;2023-03-03T00:32:59;12.43;;;7.68;;
37151;SDS011;23046;50.112;8.952;2023-03-03T00:33:18;12.73;;;7.77;;
37151;SDS011;23046;50.112;8.952;2023-03-03T00:33:35;13.85;;;7.10;;
37151;SDS011;23046;50.112;8.952;2023-03-03T00:33:51;13.98;;;7.25;;
37151;SDS011;23046;50.112;8.952;2023-03-03T00:34:27;15.60;;;7.63;;
37151;SDS011;23046;50.112;8.952;2023-03-03T00:34:37;14.20;;;7.32;;
37151;SDS011;23046;50.112;8.952;2023-03-03T00:34:47;12.63;;;7.47;;
37151;SDS011;23046;50.112;8.952;2023-03-03T00:35:01;13.18;;;7.95;;
37151;SDS011;23046;50.112;8.952;2023-03-03T00:35:24;14.50;;;8.13;;
37151;SDS011;23046;50.112;8.952;2023-03-03T00:35:35;13.45;;;7.70;;
37151;SDS011;23046;50.112;8.952;2023-03-03T00:35:48;13.38;;;7.32;;
37151;SDS011;23046;50.112;8.952;2023-03-03T00:36:05;14.67;;;7.20;;
37151;SDS011;23046;50.112;8.952;2023-03-03T00:36:21;15.88;;;7.55;;
37151;SDS011;23046;50.112;8.952;2023-03-03T00:36:35;14.20;;;7.55;;
37151;SDS011;23046;50.112;8.952;2023-03-03T00:36:46;12.63;;;7.22;;
37151;SDS011;23046;50.112;8.952;2023-03-03T00:36:58;13.10;;;7.25;;
37151;SDS011;23046;50.112;8.952;2023-03-03T00:37:38;13.75;;;7.68;;
37151;SDS011;23046;50.112;8.952;2023-03-03T00:37:56;14.73;;;7.63;;
37151;SDS011;23046;50.112;8.952;2023-03-03T00:38:11;15.13;;;7.68;;
37151;SDS011;23046;50.112;8.952;2023-03-03T00:38:23;12.75;;;7.72;;
37151;SDS011;23046;50.112;8.952;2023-03-03T00:38:34;12.57;;;7.83;;
37151;SDS011;23046;50.112;8.952;2023-03-03T00:38:46;11.95;;;7.65;;
37151;SDS011;23046;50.112;8.952;2023-03-03T00:38:59;15.10;;;7.60;;
37151;SDS011;23046;50.112;8.952;2023-03-03T00:39:44;12.00;;;7.70;;
37151;SDS011;23046;50.112;8.952;2023-03-03T00:39:57;12.68;;;7.57;;
37151;SDS011;23046;50.112;8.952;2023-03-03T00:40:37;13.30;;;7.25;;
37151;SDS011;23046;50.112;8.952;2023-03-03T00:40:48;13.45;;;7.40;;
37151;SDS011;23046;50.112;8.952;2023-03-03T00:40:58;12.23;;;7.45;;
37151;SDS011;23046;50.112;8.952;2023-03-03T00:41:15;12.70;;;7.50;;
37151;SDS011;23046;50.112;8.952;2023-03-03T00:41:28;13.15;;;7.38;;
37151;SDS011;23046;50.112;8.952;2023-03-03T00:41:38;15.03;;;7.47;;
37151;SDS011;23046;50.112;8.952;2023-03-03T00:41:49;14.90;;;7.57;;
37151;SDS011;23046;50.112;8.952;2023-03-03T00:41:59;15.52;;;7.72;;
37151;SDS011;23046;50.112;8.952;2023-03-03T00:42:11;13.30;;;7.82;;
37151;SDS011;23046;50.112;8.952;2023-03-03T00:42:22;15.70;;;7.95;;
37151;SDS011;23046;50.112;8.952;2023-03-03T00:42:33;14.18;;;7.55;;
37151;SDS011;23046;50.112;8.952;2023-03-03T00:42:46;13.77;;;7.57;;
37151;SDS011;23046;50.112;8.952;2023-03-03T00:42:58;11.48;;;7.43;;
37151;SDS011;23046;50.112;8.952;2023-03-03T00:43:22;12.15;;;7.53;;
37151;SDS011;23046;50.112;8.952;2023-03-03T00:43:33;13.27;;;7.47;;
37151;SDS011;23046;50.112;8.952;2023-03-03T00:43:44;13.75;;;7.60;;
37151;SDS011;23046;50.112;8.952;2023-03-03T00:43:54;13.97;;;7.90;;
37151;SDS011;23046;50.112;8.952;2023-03-03T00:44:42;13.05;;;7.30;;
37151;SDS011;23046;50.112;8.952;2023-03-03T00:44:55;14.02;;;7.55;;
37151;SDS011;23046;50.112;8.952;2023-03-03T00:45:16;13.32;;;7.70;;
37151;SDS011;23046;50.112;8.952;2023-03-03T00:45:33;13.18;;;7.88;;
37151;SDS011;23046;50.112;8.952;2023-03-03T00:45:56;12.48;;;7.45;;
37151;SDS011;23046;50.112;8.952;2023-03-03T00:46:07;13.20;;;7.82;;
37151;SDS011;23046;50.112;8.952;2023-03-03T00:46:18;14.20;;;8.27;;
37151;SDS011;23046;50.112;8.952;2023-03-03T00:46:28;14.63;;;8.35;;
37151;SDS011;23046;50.112;8.952;2023-03-03T00:46:39;13.17;;;8.10;;
37151;SDS011;23046;50.112;8.952;2023-03-03T00:46:50;13.60;;;7.97;;
37151;SDS011;23046;50.112;8.952;2023-03-03T00:47:36;13.98;;;7.72;;
37151;SDS011;23046;50.112;8.952;2023-03-03T00:47:47;12.93;;;7.55;;
37151;SDS011;23046;50.112;8.952;2023-03-03T00:47:57;11.97;;;7.50;;
37151;SDS011;23046;50.112;8.952;2023-03-03T00:48:19;13.23;;;7.82;;
37151;SDS011;23046;50.112;8.952;2023-03-03T00:48:35;13.40;;;7.88;;
37151;SDS011;23046;50.112;8.952;2023-03-03T00:48:49;12.88;;;7.45;;
37151;SDS011;23046;50.112;8.952;2023-03-03T00:48:59;13.10;;;7.82;;
37151;SDS011;23046;50.112;8.952;2023-03-03T00:49:10;13.60;;;7.87;;
37151;SDS011;23046;50.112;8.952;2023-03-03T00:49:30;13.68;;;7.55;;
37151;SDS011;23046;50.112;8.952;2023-03-03T00:49:40;13.82;;;7.90;;
37151;SDS011;23046;50.112;8.952;2023-03-03T00:49:58;13.27;;;8.00;;
37151;SDS011;23046;50.112;8.952;2023-03-03T00:50:23;12.60;;;8.07;;
37151;SDS011;23046;50.112;8.952;2023-03-03T00:50:34;12.27;;;7.78;;
37151;SDS011;23046;50.112;8.952;2023-03-03T00:50:44;11.52;;;7.43;;
37151;SDS011;23046;50.112;8.952;2023-03-03T00:50:58;11.53;;;7.43;;
37151;SDS011;23046;50.112;8.952;2023-03-03T00:51:20;13.25;;;7.78;;
37151;SDS011;23046;50.112;8.952;2023-03-03T00:51:35;14.05;;;8.10;;
37151;SDS011;23046;50.112;8.952;2023-03-03T00:51:45;14.33;;;8.17;;
37151;SDS011;23046;50.112;8.952;2023-03-03T00:51:55;13.60;;;7.93;;
37151;SDS011;23046;50.112;8.952;2023-03-03T00:52:18;13.47;;;7.83;;
37151;SDS011;23046;50.112;8.952;2023-03-03T00:52:32;13.00;;;8.30;;
37151;SDS011;23046;50.112;8.952;2023-03-03T00:52:44;12.52;;;8.27;;
37151;SDS011;23046;50.112;8.952;2023-03-03T00:53:03;13.95;;;8.18;;
37151;SDS011;23046;50.112;8.952;2023-03-03T00:53:14;14.95;;;8.13;;
37151;SDS011;23046;50.112;8.952;2023-03-03T00:53:28;14.20;;;7.95;;
37151;SDS011;23046;50.112;8.952;2023-03-03T00:53:39;14.13;;;8.15;;
37151;SDS011;23046;50.112;8.952;2023-03-03T00:53:49;15.97;;;8.30;;
37151;SDS011;23046;50.112;8.952;2023-03-03T00:54:00;15.88;;;8.18;;
37151;SDS011;23046;50.112;8.952;2023-03-03T00:54:10;15.60;;;7.90;;
37151;SDS011;23046;50.112;8.952;2023-03-03T00:54:20;14.03;;;7.90;;
37151;SDS011;23046;50.112;8.952;2023-03-03T00:54:30;14.33;;;8.30;;
37151;SDS011;23046;50.112;8.952;2023-03-03T00:54:40;14.93;;;8.60;;
37151;SDS011;23046;50.112;8.952;2023-03-03T00:54:51;13.52;;;8.23;;
37151;SDS011;23046;50.112;8.952;2023-03-03T00:55:01;13.30;;;8.37;;
37151;SDS011;23046;50.112;8.952;2023-03-03T00:55:13;13.38;;;8.18;;
37151;SDS011;23046;50.112;8.952;2023-03-03T00:55:23;12.93;;;8.10;;
37151;SDS011;23046;50.112;8.952;2023-03-03T00:55:33;12.67;;;7.80;;
37151;SDS011;23046;50.112;8.952;2023-03-03T00:55:45;12.35;;;7.85;;
37151;SDS011;23046;50.112;8.952;2023-03-03T00:55:56;13.45;;;7.88;;
37151;SDS011;23046;50.112;8.952;2023-03-03T00:56:07;14.90;;;7.85;;
37151;SDS011;23046;50.112;8.952;2023-03-03T00:56:17;15.20;;;7.70;;
37151;SDS011;23046;50.112;8.952;2023-03-03T00:56:27;14.17;;;7.57;;
37151;SDS011;23046;50.112;8.952;2023-03-03T00:56:37;13.07;;;7.57;;
37151;SDS011;23046;50.112;8.952;2023-03-03T00:56:48;14.70;;;7.78;;
37151;SDS011;23046;50.112;8.952;2023-03-03T00:56:58;15.03;;;8.07;;
37151;SDS011;23046;50.112;8.952;2023-03-03T00:57:08;13.93;;;7.97;;
37151;SDS011;23046;50.112;8.952;2023-03-03T00:57:19;12.95;;;7.95;;
37151;SDS011;23046;50.112;8.952;2023-03-03T00:57:30;13.75;;;8.18;;
37151;SDS011;23046;50.112;8.952;2023-03-03T00:57:41;13.98;;;8.02;;
37151;SDS011;23046;50.112;8.952;2023-03-03T00:57:53;13.60;;;7.88;;
37151;SDS011;23046;50.112;8.952;2023-03-03T00:58:08;12.27;;;7.53;;
37151;SDS011;23046;50.112;8.952;2023-03-03T00:58:24;13.02;;;8.02;;
37151;SDS011;23046;50.112;8.952;2023-03-03T00:58:35;13.02;;;8.13;;
37151;SDS011;23046;50.112;8.952;2023-03-03T00:58:45;14.17;;;8.20;;
37151;SDS011;23046;50.112;8.952;2023-03-03T00:58:58;13.95;;;7.93;;
37151;SDS011;23046;50.112;8.952;2023-03-03T00:59:10;13.77;;;7.85;;
37151;SDS011;23046;50.112;8.952;2023-03-03T00:59:21;12.70;;;7.72;;
37151;SDS011;23046;50.112;8.952;2023-03-03T00:59:31;11.83;;;8.03;;
37151;SDS011;23046;50.112;8.952;2023-03-03T00:59:41;12.73;;;8.43;;
37151;SDS011;23046;50.112;8.952;2023-03-03T00:59:51;13.43;;;8.40;;
37151;SDS011;23046;50.112;8.952;2023-03-03T01:00:03;13.48;;;8.05;;
37151;SDS011;23046;50.112;8.952;2023-03-03T01:00:14;11.77;;;7.72;;
37151;SDS011;23046;50.112;8.952;2023-03-03T01:00:25;12.87;;;8.10;;
37151;SDS011;23046;50.112;8.952;2023-03-03T01:00:35;12.68;;;8.13;;
37151;SDS011;23046;50.112;8.952;2023-03-03T01:00:48;13.25;;;8.27;;
37151;SDS011;23046;50.112;8.952;2023-03-03T01:01:01;14.57;;;8.30;;
37151;SDS011;23046;50.112;8.952;2023-03-03T01:01:21;13.15;;;7.80;;
37151;SDS011;23046;50.112;8.952;2023-03-03T01:01:35;13.27;;;7.93;;
37151;SDS011;23046;50.112;8.952;2023-03-03T01:01:45;13.65;;;8.13;;
37151;SDS011;23046;50.112;8.952;2023-03-03T01:01:55;12.97;;;8.20;;
37151;SDS011;23046;50.112;8.952;2023-03-03T01:02:06;13.37;;;8.10;;
37151;SDS011;23046;50.112;8.952;2023-03-03T01:02:16;14.10;;;8.18;;
37151;SDS011;23046;50.112;8.952;2023-03-03T01:02:26;14.13;;;8.27;;
37151;SDS011;23046;50.112;8.952;2023-03-03T01:02:36;12.67;;;8.00;;
37151;SDS011;23046;50.112;8.952;2023-03-03T01:02:47;12.63;;;7.93;;
37151;SDS011;23046;50.112;8.952;2023-03-03T01:02:58;13.52;;;8.07;;
37151;SDS011;23046;50.112;8.952;2023-03-03T01:03:14;13.93;;;8.15;;
37151;SDS011;23046;50.112;8.952;2023-03-03T01:03:25;13.43;;;8.30;;
37151;SDS011;23046;50.112;8.952;2023-03-03T01:03:36;13.27;;;8.02;;
37151;SDS011;23046;50.112;8.952;2023-03-03T01:03:48;13.00;;;7.82;;
37151;SDS011;23046;50.112;8.952;2023-03-03T01:03:58;13.57;;;7.93;;
37151;SDS011;23046;50.112;8.952;2023-03-03T01:04:08;13.90;;;8.47;;
37151;SDS011;23046;50.112;8.952;2023-03-03T01:04:18;14.40;;;8.57;;
37151;SDS011;23046;50.112;8.952;2023-03-03T01:04:29;14.20;;;8.50;;
37151;SDS011;23046;50.112;8.952;2023-03-03T01:04:39;14.33;;;8.30;;
37151;SDS011;23046;50.112;8.952;2023-03-03T01:04:51;14.95;;;8.73;;
37151;SDS011;23046;50.112;8.952;2023-03-03T01:05:02;14.98;;;8.70;;
37151;SDS011;23046;50.112;8.952;2023-03-03T01:05:13;15.15;;;8.90;;
37151;SDS011;23046;50.112;8.952;2023-03-03T01:05:23;14.13;;;8.65;;
37151;SDS011;23046;50.112;8.952;2023-03-03T01:05:34;13.73;;;8.60;;
37151;SDS011;23046;50.112;8.952;2023-03-03T01:05:45;13.52;;;8.50;;
37151;SDS011;23046;50.112;8.952;2023-03-03T01:05:55;14.33;;;8.73;;
37151;SDS011;23046;50.112;8.952;2023-03-03T01:06:05;15.73;;;8.65;;
37151;SDS011;23046;50.112;8.952;2023-03-03T01:06:15;16.13;;;8.70;;
37151;SDS011;23046;50.112;8.952;2023-03-03T01:06:26;16.33;;;8.57;;
37151;SDS011;23046;50.112;8.952;2023-03-03T01:06:37;15.00;;;8.27;;
37151;SDS011;23046;50.112;8.952;2023-03-03T01:06:47;14.77;;;8.18;;
37151;SDS011;23046;50.112;8.952;2023-03-03T01:06:58;13.93;;;8.10;;
37151;SDS011;23046;50.112;8.952;2023-03-03T01:07:09;13.80;;;8.07;;
37151;SDS011;23046;50.112;8.952;2023-03-03T01:07:19;14.00;;;8.07;;
37151;SDS011;23046;50.112;8.952;2023-03-03T01:07:29;13.63;;;8.00;;
37151;SDS011;23046;50.112;8.952;2023-03-03T01:07:39;14.05;;;8.20;;
37151;SDS011;23046;50.112;8.952;2023-03-03T01:07:49;13.93;;;8.33;;
37151;SDS011;23046;50.112;8.952;2023-03-03T01:08:00;14.80;;;8.73;;
37151;SDS011;23046;50.112;8.952;2023-03-03T01:08:12;13.90;;;8.55;;
37151;SDS011;23046;50.112;8.952;2023-03-03T01:08:22;13.17;;;8.30;;
37151;SDS011;23046;50.112;8.952;2023-03-03T01:08:32;12.40;;;8.25;;
37151;SDS011;23046;50.112;8.952;2023-03-03T01:08:42;13.73;;;8.40;;
37151;SDS011;23046;50.112;8.952;2023-03-03T01:08:53;14.33;;;8.60;;
37151;SDS011;23046;50.112;8.952;2023-03-03T01:09:06;14.38;;;8.48;;
37151;SDS011;23046;50.112;8.952;2023-03-03T01:09:17;13.70;;;8.30;;
37151;SDS011;23046;50.112;8.952;2023-03-03T01:09:27;14.17;;;8.13;;
37151;SDS011;23046;50.112;8.952;2023-03-03T01:09:38;14.73;;;8.43;;
37151;SDS011;23046;50.112;8.952;2023-03-03T01:09:48;14.63;;;8.60;;
37151;SDS011;23046;50.112;8.952;2023-03-03T01:09:58;13.75;;;8.52;;
37151;SDS011;23046;50.112;8.952;2023-03-03T01:10:10;13.00;;;8.18;;
37151;SDS011;23046;50.112;8.952;2023-03-03T01:10:20;13.13;;;8.07;;
37151;SDS011;23046;50.112;8.952;2023-03-03T01:10:31;14.00;;;8.40;;
37151;SDS011;23046;50.112;8.952;2023-03-03T01:11:21;14.95;;;8.30;;
37151;SDS011;23046;50.112;8.952;2023-03-03T01:11:25;13.63;;;8.50;;
37151;SDS011;23046;50.112;8.952;2023-03-03T01:11:32;15.63;;;8.45;;
37151;SDS011;23046;50.112;8.952;2023-03-03T01:11:42;14.77;;;8.50;;
37151;SDS011;23046;50.112;8.952;2023-03-03T01:11:52;14.10;;;8.53;;
37151;SDS011;23046;50.112;8.952;2023-03-03T01:12:02;13.63;;;8.57;;
37151;SDS011;23046;50.112;8.952;2023-03-03T01:12:13;13.68;;;8.55;;
37151;SDS011;23046;50.112;8.952;2023-03-03T01:12:23;14.00;;;8.70;;
37151;SDS011;23046;50.112;8.952;2023-03-03T01:12:33;13.70;;;8.47;;
37151;SDS011;23046;50.112;8.952;2023-03-03T01:12:43;14.18;;;8.35;;
37151;SDS011;23046;50.112;8.952;2023-03-03T01:12:54;14.23;;;8.20;;
37151;SDS011;23046;50.112;8.952;2023-03-03T01:13:04;15.30;;;8.60;;
37151;SDS011;23046;50.112;8.952;2023-03-03T01:13:15;16.90;;;8.77;;
37151;SDS011;23046;50.112;8.952;2023-03-03T01:13:26;16.40;;;8.73;;
37151;SDS011;23046;50.112;8.952;2023-03-03T01:13:37;15.23;;;8.38;;
37151;SDS011;23046;50.112;8.952;2023-03-03T01:13:48;13.93;;;8.35;;
37151;SDS011;23046;50.112;8.952;2023-03-03T01:13:59;15.13;;;8.15;;
37151;SDS011;23046;50.112;8.952;2023-03-03T01:14:10;17.03;;;8.33;;
37151;SDS011;23046;50.112;8.952;2023-03-03T01:14:20;16.20;;;8.30;;
37151;SDS011;23046;50.112;8.952;2023-03-03T01:14:30;14.93;;;8.43;;
37151;SDS011;23046;50.112;8.952;2023-03-03T01:14:41;13.57;;;8.50;;
37151;SDS011;23046;50.112;8.952;2023-03-03T01:14:51;13.47;;;8.50;;
37151;SDS011;23046;50.112;8.952;2023-03-03T01:15:07;14.48;;;8.60;;
37151;SDS011;23046;50.112;8.952;2023-03-03T01:15:17;15.80;;;8.60;;
37151;SDS011;23046;50.112;8.952;2023-03-03T01:15:28;14.90;;;8.60;;
37151;SDS011;23046;50.112;8.952;2023-03-03T01:15:38;13.77;;;8.50;;
37151;SDS011;23046;50.112;8.952;2023-03-03T01:15:49;13.88;;;8.48;;
37151;SDS011;23046;50.112;8.952;2023-03-03T01:15:59;13.70;;;8.17;;
37151;SDS011;23046;50.112;8.952;2023-03-03T01:16:11;14.32;;;8.25;;
37151;SDS011;23046;50.112;8.952;2023-03-03T01:16:21;14.00;;;8.47;;
37151;SDS011;23046;50.112;8.952;2023-03-03T01:16:31;14.33;;;8.37;;
37151;SDS011;23046;50.112;8.952;2023-03-03T01:16:42;14.18;;;8.43;;
37151;SDS011;23046;50.112;8.952;2023-03-03T01:16:53;14.05;;;8.35;;
37151;SDS011;23046;50.112;8.952;2023-03-03T01:17:04;14.43;;;8.63;;
37151;SDS011;23046;50.112;8.952;2023-03-03T01:17:14;15.77;;;9.17;;
37151;SDS011;23046;50.112;8.952;2023-03-03T01:17:24;15.87;;;9.30;;
37151;SDS011;23046;50.112;8.952;2023-03-03T01:17:34;14.07;;;8.80;;
37151;SDS011;23046;50.112;8.952;2023-03-03T01:17:45;12.95;;;8.25;;
37151;SDS011;23046;50.112;8.952;2023-03-03T01:17:55;12.60;;;8.10;;
37151;SDS011;23046;50.112;8.952;2023-03-03T01:18:06;13.73;;;8.57;;
37151;SDS011;23046;50.112;8.952;2023-03-03T01:18:16;14.02;;;8.50;;
37151;SDS011;23046;50.112;8.952;2023-03-03T01:18:27;14.10;;;8.43;;
37151;SDS011;23046;50.112;8.952;2023-03-03T01:18:37;13.93;;;8.20;;
37151;SDS011;23046;50.112;8.952;2023-03-03T01:18:50;14.55;;;8.35;;